Time;durP1;ratioP1;P1;durP2;ratioP2;P2;SDS_P1;SDS_P2;PMS_P1;PMS_P2;Temp;Humidity;BMP_temperature;BMP_pressure;BME280_temperature;BME280_humidity;BME280_pressure;Samples;Min_cycle;Max_cycle;Signal;HPM_P1;HPM_P2
2022/08/23 00:00:19;;;;;;;13.82;6.72;;;17.20;99.90;;;;;;4977206;28;20233;-95
2022/08/23 00:02:47;;;;;;;16.38;7.28;;;17.20;99.90;;;;;;4977059;28;20478;-96
2022/08/23 00:05:12;;;;;;;15.73;7.22;;;17.10;99.90;;;;;;4978682;28;20089;-95
2022/08/23 00:07:44;;;;;;;14.52;7.18;;;17.10;99.90;;;;;;4994232;28;20039;-94
2022/08/23 00:10:13;;;;;;;16.52;7.65;;;17.10;99.90;;;;;;5002781;28;20117;-95
2022/08/23 00:12:41;;;;;;;16.88;8.07;;;17.10;99.90;;;;;;4997177;28;20073;-95
2022/08/23 00:15:09;;;;;;;15.43;8.00;;;17.80;99.90;;;;;;4977706;28;20117;-94
2022/08/23 00:17:35;;;;;;;15.10;7.80;;;17.00;99.90;;;;;;4977307;28;20045;-95
2022/08/23 00:20:05;;;;;;;15.55;8.30;;;16.90;99.90;;;;;;4982995;28;20046;-94
2022/08/23 00:22:31;;;;;;;12.82;7.78;;;16.90;99.90;;;;;;4977521;28;20180;-95
2022/08/23 00:24:56;;;;;;;16.30;8.27;;;16.80;99.90;;;;;;4976935;28;20137;-94
2022/08/23 00:27:22;;;;;;;13.63;8.50;;;16.80;99.90;;;;;;4977156;28;20410;-93
2022/08/23 00:29:51;;;;;;;14.75;8.23;;;16.70;99.90;;;;;;4995768;28;20046;-94
2022/08/23 00:32:22;;;;;;;15.77;9.05;;;16.70;99.90;;;;;;4994339;28;20043;-94
2022/08/23 00:34:49;;;;;;;16.05;9.00;;;17.10;99.90;;;;;;4994740;28;20085;-94
2022/08/23 00:37:15;;;;;;;15.50;8.00;;;16.60;99.90;;;;;;5000446;28;20046;-94
2022/08/23 00:39:41;;;;;;;13.50;8.13;;;16.60;99.90;;;;;;4981818;28;20108;-95
2022/08/23 00:48:37;;;;;;;21.90;8.85;;;16.60;99.90;;;;;;4976804;28;20082;-94
2022/08/23 00:51:17;;;;;;;15.25;8.70;;;16.50;99.90;;;;;;4994072;28;20046;-94
2022/08/23 00:53:50;;;;;;;14.20;8.25;;;16.50;99.90;;;;;;4994374;28;20125;-95
2022/08/23 00:56:19;;;;;;;17.65;9.20;;;16.50;99.90;;;;;;4994109;28;20089;-95
2022/08/23 00:58:45;;;;;;;16.20;9.23;;;16.50;99.90;;;;;;4977098;28;20042;-96
2022/08/23 01:01:13;;;;;;;17.50;9.52;;;16.40;99.90;;;;;;4978705;28;20054;-94
2022/08/23 01:03:41;;;;;;;18.75;9.05;;;16.50;99.90;;;;;;4986006;28;20054;-94
2022/08/23 01:06:15;;;;;;;19.02;10.60;;;16.90;99.90;;;;;;4986239;28;20058;-94
2022/08/23 01:08:51;;;;;;;17.42;9.63;;;16.30;99.90;;;;;;4980927;28;20097;-94
2022/08/23 01:11:23;;;;;;;17.00;10.52;;;16.70;99.90;;;;;;4996956;28;20630;-94
2022/08/23 01:14:04;;;;;;;16.63;10.65;;;16.30;99.90;;;;;;4986818;28;20109;-95
2022/08/23 01:16:35;;;;;;;17.35;10.65;;;16.20;99.90;;;;;;5004171;28;20038;-95
2022/08/23 01:19:03;;;;;;;17.90;9.95;;;16.70;99.90;;;;;;5020841;28;20094;-94
2022/08/23 01:21:40;;;;;;;17.08;9.98;;;16.10;99.90;;;;;;5004395;28;20018;-94
2022/08/23 01:24:06;;;;;;;16.27;10.13;;;16.50;99.90;;;;;;5001801;28;20057;-95
2022/08/23 01:26:34;;;;;;;16.98;9.90;;;16.10;99.90;;;;;;5018666;23;20115;-94
2022/08/23 01:29:03;;;;;;;19.10;10.52;;;16.10;99.90;;;;;;4927860;29;20051;-95
2022/08/23 01:31:37;;;;;;;16.75;10.43;;;16.00;99.90;;;;;;4940995;29;20043;-95
2022/08/23 01:34:07;;;;;;;17.85;10.90;;;16.00;99.90;;;;;;4944543;29;20047;-95
2022/08/23 01:36:34;;;;;;;18.48;12.00;;;16.10;99.90;;;;;;4939798;29;20056;-94
2022/08/23 01:39:01;;;;;;;19.48;12.00;;;16.00;99.90;;;;;;4939376;29;20039;-94
2022/08/23 01:41:26;;;;;;;20.92;12.73;;;16.00;99.90;;;;;;4943595;29;20111;-94
2022/08/23 01:43:52;;;;;;;18.15;11.98;;;16.30;99.90;;;;;;4950269;29;20055;-94
2022/08/23 01:46:20;;;;;;;18.48;12.32;;;16.00;99.90;;;;;;4922065;29;20520;-95
2022/08/23 01:48:48;;;;;;;19.88;12.20;;;16.00;99.90;;;;;;4938839;29;20492;-94
2022/08/23 01:51:15;;;;;;;18.60;11.30;;;16.10;99.90;;;;;;4938218;29;20039;-95
2022/08/23 01:53:42;;;;;;;19.55;12.52;;;15.90;99.90;;;;;;4938807;29;20035;-95
2022/08/23 01:56:08;;;;;;;19.13;11.82;;;15.90;99.90;;;;;;4937620;29;20048;-95
2022/08/23 01:58:35;;;;;;;20.63;12.40;;;15.80;99.90;;;;;;4938562;29;20408;-95
2022/08/23 02:01:03;;;;;;;19.30;12.57;;;16.30;99.90;;;;;;4940692;29;20051;-95
2022/08/23 02:03:29;;;;;;;19.10;12.10;;;15.80;99.90;;;;;;4949906;29;20043;-96
2022/08/23 02:05:55;;;;;;;21.35;11.95;;;15.80;99.90;;;;;;4961057;28;20046;-95
2022/08/23 02:11:14;;;;;;;21.05;12.60;;;15.80;99.90;;;;;;4947449;29;20048;-94
2022/08/23 02:13:42;;;;;;;19.08;12.05;;;15.80;99.90;;;;;;4937622;29;20048;-96
2022/08/23 02:16:07;;;;;;;18.13;11.98;;;15.70;99.90;;;;;;4939016;29;20050;-96
2022/08/23 02:18:33;;;;;;;21.48;11.57;;;15.70;99.90;;;;;;4939193;29;20051;-95
2022/08/23 02:20:59;;;;;;;20.02;12.65;;;15.70;99.90;;;;;;4939074;29;20538;-95
2022/08/23 02:23:25;;;;;;;19.98;12.38;;;16.10;99.90;;;;;;4937222;29;20039;-94
2022/08/23 02:25:51;;;;;;;20.02;13.77;;;15.70;99.90;;;;;;4938066;29;20495;-95
2022/08/23 02:28:21;;;;;;;18.05;11.63;;;15.70;99.90;;;;;;4936725;29;20071;-95
2022/08/23 02:30:47;;;;;;;21.10;12.75;;;15.80;99.90;;;;;;4966499;23;20188;-94
2022/08/23 02:33:13;;;;;;;19.88;13.05;;;16.40;99.90;;;;;;4956259;29;20035;-94
2022/08/23 02:35:42;;;;;;;23.13;13.18;;;15.70;99.90;;;;;;4956077;29;20541;-94
2022/08/23 02:38:10;;;;;;;18.33;12.68;;;16.20;99.90;;;;;;4955942;29;20081;-95
2022/08/23 02:40:37;;;;;;;25.55;13.13;;;16.10;99.90;;;;;;4939607;29;20047;-94
2022/08/23 02:43:21;;;;;;;19.35;12.85;;;16.00;99.90;;;;;;4956368;29;20410;-94
2022/08/23 02:45:49;;;;;;;;;;;16.10;99.90;;;;;;4981898;23;20054;-94
2022/08/23 02:48:14;;;;;;;18.55;12.65;;;15.60;99.90;;;;;;4995589;28;19922;-93
2022/08/23 02:50:40;;;;;;;21.30;12.65;;;15.50;99.90;;;;;;4995685;28;20073;-96
2022/08/23 02:53:06;;;;;;;18.50;12.60;;;15.50;99.90;;;;;;4978496;28;20065;-93
2022/08/23 02:55:31;;;;;;;21.45;13.50;;;15.50;99.90;;;;;;4995321;28;20125;-95
2022/08/23 02:57:57;;;;;;;20.60;13.63;;;15.50;99.90;;;;;;4995618;28;20046;-94
2022/08/23 03:00:24;;;;;;;22.75;15.38;;;15.50;99.90;;;;;;4983582;28;20478;-96
2022/08/23 03:02:50;;;;;;;22.67;14.82;;;15.50;99.90;;;;;;4984333;28;20046;-95
2022/08/23 03:05:16;;;;;;;23.88;16.25;;;15.50;99.90;;;;;;4995106;28;20084;-94
2022/08/23 03:07:43;;;;;;;24.85;16.27;;;15.50;99.90;;;;;;4995619;28;20455;-94
2022/08/23 03:10:09;;;;;;;21.95;15.55;;;15.70;99.90;;;;;;4983772;28;20046;-95
2022/08/23 03:12:35;;;;;;;24.48;16.25;;;15.50;99.90;;;;;;4984807;28;20042;-96
2022/08/23 03:15:01;;;;;;;25.00;16.60;;;16.20;99.90;;;;;;5006968;28;20046;-94
2022/08/23 03:17:26;;;;;;;21.80;15.57;;;15.50;99.90;;;;;;5014368;28;20047;-94
2022/08/23 03:19:52;;;;;;;23.77;15.45;;;15.50;99.90;;;;;;4984973;28;20553;-95
2022/08/23 03:22:18;;;;;;;22.63;15.70;;;15.50;99.90;;;;;;4978696;28;20050;-94
2022/08/23 03:24:45;;;;;;;22.98;16.13;;;15.40;99.90;;;;;;4976807;28;20069;-95
2022/08/23 03:27:12;;;;;;;23.65;15.90;;;15.80;99.90;;;;;;4977913;28;20054;-94
2022/08/23 03:29:37;;;;;;;22.00;15.05;;;15.50;99.90;;;;;;4995053;28;20045;-95
2022/08/23 03:32:03;;;;;;;24.30;15.63;;;15.40;99.90;;;;;;4994744;28;20039;-96
2022/08/23 03:34:30;;;;;;;21.10;14.70;;;15.40;99.90;;;;;;4994589;28;20121;-94
2022/08/23 03:36:56;;;;;;;23.88;15.30;;;15.40;99.90;;;;;;4979783;28;20050;-95
2022/08/23 03:39:22;;;;;;;21.08;14.55;;;15.40;99.90;;;;;;4981009;28;20093;-95
2022/08/23 03:41:48;;;;;;;20.50;14.75;;;15.40;99.90;;;;;;4994887;28;20046;-94
2022/08/23 03:44:17;;;;;;;22.85;15.68;;;15.40;99.90;;;;;;4976462;28;20954;-96
2022/08/23 03:46:46;;;;;;;24.50;15.13;;;15.70;99.90;;;;;;4977518;28;20054;-95
2022/08/23 03:49:11;;;;;;;21.42;15.25;;;15.70;99.90;;;;;;4977783;28;20470;-95
2022/08/23 03:51:37;;;;;;;22.60;15.88;;;15.40;99.90;;;;;;4977035;28;20050;-95
2022/08/23 03:54:03;;;;;;;22.80;14.18;;;15.80;99.90;;;;;;4976863;28;20467;-94
2022/08/23 03:56:35;;;;;;;20.92;14.05;;;15.30;99.90;;;;;;4994412;28;20096;-95
2022/08/23 03:59:12;;;;;;;21.80;13.75;;;15.40;99.90;;;;;;4994790;28;20466;-95
2022/08/23 04:01:38;;;;;;;20.83;13.98;;;15.70;99.90;;;;;;4975092;28;20038;-94
2022/08/23 04:04:04;;;;;;;20.55;13.65;;;15.40;99.90;;;;;;4980033;28;20047;-93
2022/08/23 04:06:31;;;;;;;19.15;14.00;;;16.00;99.90;;;;;;4975009;28;20149;-96
2022/08/23 04:08:58;;;;;;;21.33;14.05;;;15.40;99.90;;;;;;4957837;28;20051;-95
2022/08/23 04:11:24;;;;;;;21.60;14.02;;;15.40;99.90;;;;;;4974942;28;20046;-96
2022/08/23 04:13:50;;;;;;;21.05;14.00;;;15.40;99.90;;;;;;4975380;28;20098;-95
2022/08/23 04:16:17;;;;;;;20.25;14.20;;;15.40;99.90;;;;;;4975190;28;20039;-95
2022/08/23 04:18:44;;;;;;;20.65;12.70;;;15.30;99.90;;;;;;4975264;28;20038;-96
2022/08/23 04:21:14;;;;;;;19.80;13.75;;;15.30;99.90;;;;;;4958012;28;20757;-95
2022/08/23 04:23:40;;;;;;;19.73;13.50;;;15.30;99.90;;;;;;4957761;28;20051;-95
2022/08/23 04:26:06;;;;;;;20.45;14.13;;;15.30;99.90;;;;;;4975622;28;20066;-94
2022/08/23 04:28:33;;;;;;;18.77;13.10;;;15.30;99.90;;;;;;4957602;28;20101;-95
2022/08/23 04:31:02;;;;;;;17.45;12.50;;;15.30;99.90;;;;;;4975176;28;20486;-94
2022/08/23 04:33:30;;;;;;;18.98;13.30;;;15.30;99.90;;;;;;4959129;28;20038;-94
2022/08/23 04:35:57;;;;;;;19.08;13.05;;;15.30;99.90;;;;;;4959186;28;20031;-95
2022/08/23 04:38:22;;;;;;;17.65;12.57;;;15.70;99.90;;;;;;4961446;28;20042;-94
2022/08/23 04:43:36;;;;;;;22.05;13.20;;;15.40;99.90;;;;;;4960988;28;20133;-95
2022/08/23 04:46:02;;;;;;;18.02;13.27;;;15.40;99.90;;;;;;4978479;28;20061;-96
2022/08/23 04:48:28;;;;;;;20.65;14.20;;;15.40;99.90;;;;;;4978722;28;20047;-95
2022/08/23 04:50:53;;;;;;;17.85;12.63;;;15.40;99.90;;;;;;4998689;28;20027;-92
2022/08/23 04:53:21;;;;;;;18.77;12.48;;;15.50;99.90;;;;;;4973904;28;20081;-95
2022/08/23 04:55:46;;;;;;;22.38;13.20;;;15.40;99.90;;;;;;4964383;28;20046;-95
2022/08/23 04:58:13;;;;;;;19.85;13.27;;;15.40;99.90;;;;;;4989840;28;20122;-95
2022/08/23 05:00:38;;;;;;;18.77;12.55;;;15.60;99.90;;;;;;4985821;28;20529;-94
2022/08/23 05:03:05;;;;;;;20.10;13.32;;;15.40;99.90;;;;;;4963375;28;20034;-96
2022/08/23 05:05:33;;;;;;;21.70;12.30;;;15.40;99.90;;;;;;4969477;28;20342;-95
2022/08/23 05:07:59;;;;;;;17.88;12.30;;;15.50;99.90;;;;;;4984049;28;20035;-94
2022/08/23 05:10:24;;;;;;;17.73;12.55;;;15.50;99.90;;;;;;5001651;28;20031;-96
2022/08/23 05:12:50;;;;;;;20.35;12.52;;;15.50;99.90;;;;;;4964608;28;20170;-95
2022/08/23 05:15:16;;;;;;;18.23;12.77;;;15.50;99.90;;;;;;4980002;28;20121;-96
2022/08/23 05:17:41;;;;;;;17.77;12.63;;;15.50;99.90;;;;;;4960989;28;20053;-96
2022/08/23 05:20:09;;;;;;;18.90;12.88;;;15.60;99.90;;;;;;4960659;28;20047;-94
2022/08/23 05:22:36;;;;;;;19.13;12.80;;;15.60;99.90;;;;;;4959416;28;20043;-81
2022/08/23 05:25:03;;;;;;;20.33;12.73;;;16.00;99.90;;;;;;4976053;28;20121;-91
2022/08/23 05:27:29;;;;;;;19.35;12.43;;;15.70;99.90;;;;;;4976203;28;20118;-84
2022/08/23 05:29:55;;;;;;;19.13;13.02;;;15.90;99.90;;;;;;4976271;28;20494;-85
2022/08/23 05:32:21;;;;;;;20.75;13.43;;;15.70;99.90;;;;;;4958165;28;20042;-85
2022/08/23 05:34:48;;;;;;;17.30;12.77;;;16.10;99.90;;;;;;4958545;28;20102;-85
2022/08/23 05:37:26;;;;;;;19.42;12.85;;;16.70;99.90;;;;;;4975965;28;20131;-83
2022/08/23 05:39:52;;;;;;;18.52;12.75;;;16.00;99.90;;;;;;4975495;28;20043;-87
2022/08/23 05:42:17;;;;;;;18.73;13.00;;;16.40;99.90;;;;;;4975946;28;20064;-83
2022/08/23 05:44:44;;;;;;;19.23;13.05;;;16.90;99.90;;;;;;4976115;28;20051;-84
2022/08/23 05:47:12;;;;;;;19.40;13.02;;;16.10;99.90;;;;;;4957890;28;20046;-83
2022/08/23 05:49:39;;;;;;;18.35;13.07;;;16.70;99.90;;;;;;4958472;28;20055;-84
2022/08/23 05:52:06;;;;;;;19.30;13.40;;;16.20;99.90;;;;;;4958910;28;20038;-83
2022/08/23 05:54:38;;;;;;;21.02;13.60;;;16.60;99.90;;;;;;4974655;28;20443;-85
2022/08/23 05:57:04;;;;;;;17.98;12.85;;;16.60;99.90;;;;;;4975867;28;20050;-84
2022/08/23 05:59:30;;;;;;;19.58;13.25;;;16.40;99.90;;;;;;4975052;28;20130;-87
2022/08/23 06:01:56;;;;;;;19.35;13.70;;;16.90;99.90;;;;;;4958522;28;20046;-85
2022/08/23 06:04:34;;;;;;;18.55;13.30;;;16.60;99.90;;;;;;4975694;28;20134;-85
2022/08/23 06:07:05;;;;;;;18.83;13.50;;;17.30;99.90;;;;;;4975217;28;20138;-84
2022/08/23 06:09:31;;;;;;;18.75;13.57;;;16.70;99.90;;;;;;4958181;28;20093;-85
2022/08/23 06:11:58;;;;;;;16.92;12.85;;;17.60;99.90;;;;;;4983484;28;20042;-84
2022/08/23 06:14:23;;;;;;;20.88;13.40;;;16.90;99.90;;;;;;4973805;28;20421;-84
2022/08/23 06:16:50;;;;;;;19.27;14.00;;;17.00;99.90;;;;;;4977674;28;20045;-85
2022/08/23 06:19:16;;;;;;;18.40;13.15;;;17.10;99.90;;;;;;4977247;28;20129;-84
2022/08/23 06:21:42;;;;;;;17.33;13.73;;;17.30;99.90;;;;;;4977085;28;20578;-85
2022/08/23 06:24:09;;;;;;;18.52;13.45;;;17.50;99.90;;;;;;4980607;28;20058;-84
2022/08/23 06:26:38;;;;;;;20.45;13.10;;;17.50;99.90;;;;;;4987011;28;20057;-88
2022/08/23 06:29:09;;;;;;;17.58;13.05;;;17.70;99.90;;;;;;4981963;28;20053;-85
2022/08/23 06:31:50;;;;;;;18.85;13.98;;;18.40;99.90;;;;;;4970457;28;20086;-87
2022/08/23 06:34:35;;;;;;;18.65;13.45;;;18.00;99.90;;;;;;4958707;28;20047;-88
2022/08/23 06:37:06;;;;;;;18.35;12.27;;;18.10;99.90;;;;;;4958431;28;20066;-88
2022/08/23 06:39:47;;;;;;;20.70;12.70;;;18.50;99.90;;;;;;4957988;28;20046;-88
2022/08/23 06:42:15;;;;;;;18.30;12.48;;;18.20;99.90;;;;;;4974693;28;20046;-87
2022/08/23 06:45:05;;;;;;;18.20;12.48;;;18.30;99.90;;;;;;4957608;28;20133;-87
2022/08/23 06:47:49;;;;;;;17.02;12.57;;;18.40;99.90;;;;;;4957100;28;20050;-89
2022/08/23 06:50:16;;;;;;;19.73;12.27;;;19.20;99.90;;;;;;4957137;28;20129;-85
2022/08/23 06:52:49;;;;;;;20.08;13.27;;;18.50;99.90;;;;;;4957498;28;20534;-86
2022/08/23 06:55:15;;;;;;;17.65;13.65;;;18.50;99.90;;;;;;4957598;28;20057;-86
2022/08/23 06:57:41;;;;;;;17.17;12.90;;;18.70;99.90;;;;;;4956943;28;20078;-86
2022/08/23 07:00:13;;;;;;;18.88;13.30;;;19.40;99.90;;;;;;4957442;28;20078;-86
2022/08/23 07:02:39;;;;;;;16.02;12.30;;;18.90;99.90;;;;;;4956939;28;20050;-86
2022/08/23 07:05:20;;;;;;;16.83;12.35;;;19.70;99.90;;;;;;4957292;28;20609;-86
2022/08/23 07:07:46;;;;;;;14.93;11.55;;;19.10;99.90;;;;;;4957080;28;20047;-86
2022/08/23 07:10:27;;;;;;;15.48;11.35;;;19.60;99.90;;;;;;4956596;28;20047;-87
2022/08/23 07:13:02;;;;;;;15.07;10.85;;;20.00;99.90;;;;;;4957592;28;20050;-86
2022/08/23 07:15:31;;;;;;;13.88;9.60;;;19.50;99.90;;;;;;4955818;28;20097;-86
2022/08/23 07:17:57;;;;;;;14.68;8.90;;;19.70;99.90;;;;;;4956539;28;20046;-86
2022/08/23 07:20:35;;;;;;;13.43;8.40;;;20.30;99.90;;;;;;4956867;28;20487;-86
2022/08/23 07:23:01;;;;;;;12.63;8.07;;;20.70;99.90;;;;;;4957149;28;20074;-86
2022/08/23 07:25:45;;;;;;;12.25;7.43;;;19.90;99.90;;;;;;4955993;28;20411;-86
2022/08/23 07:28:38;;;;;;;13.13;7.38;;;20.80;99.90;;;;;;4974342;28;20114;-86
2022/08/23 07:31:34;;;;;;;12.40;7.13;;;20.20;99.90;;;;;;4973786;28;20922;-86
2022/08/23 07:34:09;;;;;;;13.50;7.20;;;20.50;99.90;;;;;;4887911;29;20127;-86
2022/08/23 07:36:40;;;;;;;12.50;6.78;;;20.90;99.90;;;;;;4868587;29;20061;-85
2022/08/23 07:39:10;;;;;;;12.02;6.20;;;20.70;99.90;;;;;;4963762;28;20120;-85
2022/08/23 07:41:37;;;;;;;13.43;6.80;;;20.80;99.90;;;;;;4982594;28;20126;-85
2022/08/23 07:44:46;;;;;;;11.27;6.50;;;21.00;99.90;;;;;;4970262;23;20498;-86
2022/08/23 07:47:12;;;;;;;11.15;6.07;;;21.00;99.90;;;;;;4991040;28;20328;-85
2022/08/23 07:49:53;;;;;;;10.75;5.90;;;21.80;99.90;;;;;;4968287;28;20081;-86
2022/08/23 07:52:30;;;;;;;11.35;6.20;;;21.90;99.90;;;;;;4954174;28;20101;-86
2022/08/23 07:54:56;;;;;;;12.05;5.63;;;21.40;99.90;;;;;;4971727;28;20043;-86
2022/08/23 07:57:21;;;;;;;11.73;6.22;;;21.50;99.90;;;;;;5001870;23;20041;-86
2022/08/23 08:00:13;;;;;;;12.15;5.88;;;21.60;99.90;;;;;;4963846;28;20089;-86
2022/08/23 08:03:00;;;;;;;10.57;5.80;;;21.80;99.90;;;;;;4977741;28;20081;-88
2022/08/23 08:05:48;;;;;;;11.77;5.43;;;21.90;99.90;;;;;;4956159;28;20043;-88
2022/08/23 08:08:26;;;;;;;11.40;5.80;;;22.20;99.90;;;;;;4974063;28;20073;-85
2022/08/23 08:11:01;;;;;;;10.07;5.47;;;22.70;99.90;;;;;;4977241;28;20492;-84
2022/08/23 08:13:30;;;;;;;11.70;5.65;;;22.10;99.90;;;;;;4976831;28;20038;-91
2022/08/23 08:15:55;;;;;;;13.23;5.68;;;23.00;99.90;;;;;;4960515;28;20054;-90
2022/08/23 08:18:21;;;;;;;11.85;5.93;;;22.50;99.90;;;;;;4977560;28;20039;-90
2022/08/23 08:20:47;;;;;;;11.52;5.68;;;22.60;99.90;;;;;;4959671;28;20054;-89
2022/08/23 08:23:12;;;;;;;12.50;5.80;;;23.10;99.90;;;;;;4960252;28;20053;-88
2022/08/23 08:25:38;;;;;;;10.23;5.40;;;22.80;99.90;;;;;;4959821;28;20491;-88
2022/08/23 08:28:03;;;;;;;12.50;5.97;;;22.90;99.90;;;;;;4959467;28;20046;-89
2022/08/23 08:30:29;;;;;;;11.15;5.68;;;23.00;99.90;;;;;;4960005;28;20062;-89
2022/08/23 08:32:55;;;;;;;12.18;6.28;;;23.00;99.90;;;;;;4960161;28;20046;-89
2022/08/23 08:35:20;;;;;;;12.13;5.57;;;23.10;99.90;;;;;;4976002;28;20533;-90
2022/08/23 08:37:46;;;;;;;10.98;6.05;;;23.10;99.90;;;;;;4977215;28;20038;-89
2022/08/23 08:40:13;;;;;;;11.10;5.68;;;23.20;99.90;;;;;;4976748;28;20051;-91
2022/08/23 08:43:08;;;;;;;12.63;6.07;;;23.30;99.90;;;;;;4959536;28;20125;-90
2022/08/23 08:45:57;;;;;;;10.20;5.82;;;23.40;99.90;;;;;;4925248;28;20102;-89
2022/08/23 08:48:25;;;;;;;11.50;5.70;;;23.60;99.90;;;;;;4976052;28;20039;-90
2022/08/23 08:50:56;;;;;;;11.68;5.63;;;23.70;99.90;;;;;;4982780;28;20074;-92
2022/08/23 08:53:27;;;;;;;9.70;5.45;;;23.90;99.90;;;;;;4980872;28;20039;-91
2022/08/23 08:55:59;;;;;;;10.50;5.70;;;24.20;99.90;;;;;;4959872;28;20054;-92
2022/08/23 08:58:51;;;;;;;12.05;5.82;;;24.30;99.90;;;;;;4979740;28;20104;-93
2022/08/23 09:01:20;;;;;;;10.68;5.70;;;24.20;99.90;;;;;;4969232;28;20043;-95
2022/08/23 09:03:53;;;;;;;12.15;5.78;;;24.20;99.90;;;;;;4992280;23;20463;-93
2022/08/23 09:06:29;;;;;;;9.77;5.53;;;24.50;99.90;;;;;;4977470;28;20055;-92
2022/08/23 09:09:25;;;;;;;11.73;5.35;;;24.60;99.90;;;;;;4978812;28;20042;-92
2022/08/23 09:12:10;;;;;;;10.70;5.40;;;24.90;99.90;;;;;;4996159;28;20050;-90
2022/08/23 09:14:45;;;;;;;10.23;5.05;;;24.90;99.90;;;;;;4978441;28;20081;-93
2022/08/23 09:17:30;;;;;;;9.45;5.28;;;25.00;99.90;;;;;;4995719;28;20046;-88
2022/08/23 09:20:02;;;;;;;10.23;5.10;;;25.10;99.90;;;;;;4978528;28;20081;-92
2022/08/23 09:22:35;;;;;;;10.32;4.70;;;25.40;99.90;;;;;;4977931;28;20089;-91
2022/08/23 09:25:00;;;;;;;11.65;4.97;;;25.30;99.90;;;;;;4999380;28;20058;-91
2022/08/23 09:27:26;;;;;;;9.93;4.88;;;25.30;99.90;;;;;;4978886;28;20247;-91
2022/08/23 09:29:57;;;;;;;12.25;5.30;;;25.40;99.90;;;;;;4996115;28;20039;-89
2022/08/23 09:32:32;;;;;;;11.55;5.10;;;25.50;99.90;;;;;;4986052;28;20045;-93
2022/08/23 09:35:16;;;;;;;10.63;5.20;;;25.60;99.90;;;;;;4994916;28;20049;-91
2022/08/23 09:37:56;;;;;;;11.48;4.72;;;25.80;99.90;;;;;;4983208;28;20402;-90
2022/08/23 09:40:37;;;;;;;8.98;4.47;;;25.90;99.90;;;;;;4978538;28;20173;-91
2022/08/23 09:43:12;;;;;;;12.23;5.53;;;26.20;99.90;;;;;;4979318;28;20054;-92
2022/08/23 09:45:50;;;;;;;10.25;4.13;;;26.30;99.90;;;;;;4977046;28;20054;-90
2022/08/23 09:48:34;;;;;;;8.85;4.30;;;26.40;99.90;;;;;;4977436;28;20042;-86
2022/08/23 09:51:05;;;;;;;11.05;4.30;;;26.50;99.90;;;;;;4995716;28;20042;-85
2022/08/23 09:53:31;;;;;;;9.82;4.10;;;26.70;99.90;;;;;;4977198;28;20051;-86
2022/08/23 09:56:08;;;;;;;10.70;4.20;;;26.80;99.90;;;;;;4977714;28;20039;-87
2022/08/23 09:58:52;;;;;;;8.90;3.95;;;26.90;99.90;;;;;;4994135;28;20757;-86
2022/08/23 10:01:21;;;;;;;8.82;3.70;;;26.90;99.90;;;;;;4995203;28;20045;-87
2022/08/23 10:04:14;;;;;;;9.45;4.20;;;27.00;99.90;;;;;;4978440;28;20058;-86
2022/08/23 10:06:42;;;;;;;9.98;4.07;;;27.10;99.90;;;;;;4985997;28;20465;-88
2022/08/23 10:09:23;;;;;;;9.80;3.80;;;27.20;99.90;;;;;;4975962;28;20043;-92
2022/08/23 10:11:50;;;;;;;8.68;4.00;;;27.20;99.90;;;;;;4958515;28;20058;-91
2022/08/23 10:14:19;;;;;;;9.73;4.20;;;27.10;99.60;;;;;;4957321;28;20089;-92
2022/08/23 10:16:56;;;;;;;8.27;3.85;;;27.30;98.10;;;;;;4975881;28;20086;-91
2022/08/23 10:19:30;;;;;;;9.52;3.78;;;27.40;99.90;;;;;;4957963;28;20046;-91
2022/08/23 10:22:18;;;;;;;8.38;3.70;;;27.60;98.50;;;;;;4957561;28;20100;-92
2022/08/23 10:25:03;;;;;;;9.18;4.20;;;27.70;98.80;;;;;;4975423;28;20053;-91
2022/08/23 10:30:57;;;;;;;10.65;4.03;;;28.10;98.40;;;;;;4974021;28;20062;-92
2022/08/23 10:33:45;;;;;;;11.68;4.28;;;28.40;97.50;;;;;;4974230;28;20046;-92
2022/08/23 10:36:37;;;;;;;9.43;3.40;;;28.50;98.30;;;;;;4975402;28;20051;-92
2022/08/23 10:39:11;;;;;;;10.05;3.88;;;28.50;97.00;;;;;;4975294;28;20070;-93
2022/08/23 10:42:13;;;;;;;12.38;4.32;;;28.60;97.80;;;;;;4957314;28;20051;-92
2022/08/23 10:44:59;;;;;;;8.30;3.35;;;28.60;97.50;;;;;;4957856;28;20082;-95
2022/08/23 10:47:32;;;;;;;10.70;3.67;;;28.60;97.20;;;;;;4984385;28;20061;-94
2022/08/23 10:50:04;;;;;;;9.48;3.85;;;28.50;97.10;;;;;;4973200;28;20074;-93
2022/08/23 10:52:37;;;;;;;9.88;3.88;;;28.40;96.60;;;;;;4959345;28;20089;-91
2022/08/23 10:55:15;;;;;;;;;;;28.70;96.80;;;;;;4959590;28;20105;-90
2022/08/23 10:57:44;;;;;;;10.73;3.88;;;28.60;96.10;;;;;;4983852;28;19918;-88
2022/08/23 11:00:30;;;;;;;9.43;3.75;;;28.70;97.00;;;;;;4960967;28;20151;-90
2022/08/23 11:03:26;;;;;;;10.55;3.60;;;28.80;96.80;;;;;;4958314;28;20042;-88
2022/08/23 11:06:30;;;;;;;11.00;4.22;;;28.70;95.70;;;;;;4965623;28;20066;-88
2022/08/23 11:09:05;;;;;;;10.52;3.85;;;29.00;95.70;;;;;;4964987;28;20070;-89
2022/08/23 11:12:04;;;;;;;9.27;3.72;;;29.20;95.90;;;;;;4972230;28;20050;-90
2022/08/23 11:15:03;;;;;;;9.63;3.75;;;29.40;95.00;;;;;;4974640;28;20125;-89
2022/08/23 11:17:57;;;;;;;9.88;3.80;;;29.60;93.70;;;;;;4974553;28;20105;-93
2022/08/23 11:20:47;;;;;;;10.98;3.80;;;29.70;94.60;;;;;;4974592;28;20093;-84
2022/08/23 11:23:20;;;;;;;8.88;3.70;;;30.00;94.30;;;;;;4973891;28;20185;-84
2022/08/23 11:25:49;;;;;;;10.45;3.70;;;30.10;94.10;;;;;;4986580;23;20077;-87
2022/08/23 11:29:14;;;;;;;9.63;3.50;;;30.00;94.00;;;;;;4978028;28;20050;-88
2022/08/23 11:31:48;;;;;;;8.77;3.45;;;30.10;92.50;;;;;;4871418;29;20127;-90
2022/08/23 11:34:50;;;;;;;9.20;3.60;;;30.10;92.90;;;;;;4968364;28;20046;-95
2022/08/23 11:37:19;;;;;;;10.70;4.05;;;30.30;93.00;;;;;;4954641;28;20409;-86
2022/08/23 11:39:57;;;;;;;11.50;3.75;;;30.20;93.20;;;;;;4966824;28;20089;-86
2022/08/23 11:42:45;;;;;;;9.77;3.65;;;30.10;93.00;;;;;;4964988;28;20054;-85
2022/08/23 11:45:21;;;;;;;10.35;3.17;;;30.20;92.50;;;;;;4974754;28;20054;-80
2022/08/23 11:48:02;;;;;;;9.40;3.47;;;30.40;92.30;;;;;;4993609;28;20057;-83
2022/08/23 11:50:42;;;;;;;8.48;3.58;;;30.30;91.70;;;;;;4975458;28;20133;-85
2022/08/23 11:53:22;;;;;;;10.55;3.45;;;30.50;92.00;;;;;;4975109;28;20042;-85
2022/08/23 11:55:56;;;;;;;10.25;3.22;;;30.50;91.20;;;;;;4975949;28;20054;-85
2022/08/23 11:58:49;;;;;;;12.80;3.42;;;30.70;91.50;;;;;;4984135;28;20050;-85
2022/08/23 12:01:15;;;;;;;9.88;3.17;;;30.80;90.80;;;;;;4965749;28;20479;-85
2022/08/23 12:04:09;;;;;;;8.73;3.30;;;31.10;91.20;;;;;;4984545;28;20122;-85
2022/08/23 12:06:41;;;;;;;9.25;3.72;;;31.10;90.20;;;;;;4982554;28;20097;-84
2022/08/23 12:09:35;;;;;;;10.23;3.30;;;31.20;89.70;;;;;;4969720;28;20031;-85
2022/08/23 12:12:01;;;;;;;8.60;3.63;;;31.10;88.60;;;;;;4990398;28;20152;-85
2022/08/23 12:18:21;;;;;;;;;;;31.30;87.60;;;;;;4863851;29;20057;-88
2022/08/23 12:20:57;;;;;;;8.88;3.33;;;31.00;87.80;;;;;;4943411;28;19922;-88
2022/08/23 12:23:46;;;;;;;7.82;3.10;;;31.20;89.90;;;;;;4995363;28;20494;-89
2022/08/23 12:33:24;;;;;;;8.40;3.90;;;31.60;85.00;;;;;;4975132;28;20046;-90
2022/08/23 12:36:22;;;;;;;9.32;3.58;;;31.60;86.70;;;;;;4976250;28;20050;-90
2022/08/23 12:39:46;;;;;;;8.68;3.20;;;31.90;86.50;;;;;;4975777;28;20050;-91
2022/08/23 12:42:40;;;;;;;10.00;3.50;;;31.70;86.00;;;;;;4984479;28;20141;-93
2022/08/23 12:45:22;;;;;;;9.15;3.40;;;31.90;85.90;;;;;;4979325;28;20057;-96
2022/08/23 12:56:38;;;;;;;10.10;3.65;;;32.30;85.10;;;;;;4844017;26;20533;-91
2022/08/23 12:59:48;;;;;;;8.52;3.53;;;32.20;83.60;;;;;;4963232;28;20047;-93
2022/08/23 13:02:55;;;;;;;10.40;3.60;;;32.20;82.90;;;;;;4960010;28;20057;-93
2022/08/23 13:06:00;;;;;;;9.23;3.63;;;32.30;81.50;;;;;;5011342;23;20046;-93
2022/08/23 13:09:39;;;;;;;8.25;3.60;;;32.50;82.90;;;;;;4979022;28;20050;-94
2022/08/23 13:12:48;;;;;;;9.25;3.67;;;32.80;83.20;;;;;;4904567;29;20095;-95
2022/08/23 13:16:13;;;;;;;;;;;;;;;;;;;;;
2022/08/23 13:23:16;;;;;;;;;;;;;;;;;;;;;
2022/08/23 13:30:08;;;;;;;10.52;3.38;;;31.60;81.10;;;;;;4992289;23;20051;-92
2022/08/23 13:32:52;;;;;;;8.63;3.70;;;31.60;80.80;;;;;;4919916;29;20534;-93
2022/08/23 13:35:30;;;;;;;10.20;3.50;;;31.90;80.20;;;;;;4906741;29;20064;-92
2022/08/23 13:42:25;;;;;;;8.48;3.13;;;31.80;79.30;;;;;;4936206;29;20098;-91
2022/08/23 13:44:51;;;;;;;7.70;3.17;;;31.70;79.20;;;;;;4977178;28;20244;-95
2022/08/23 13:47:49;;;;;;;9.45;3.67;;;31.30;81.50;;;;;;4977914;28;20043;-93
2022/08/23 13:51:05;;;;;;;9.43;3.60;;;31.10;80.60;;;;;;4975838;28;20077;-95
2022/08/23 13:59:42;;;;;;;9.23;3.50;;;30.90;82.80;;;;;;4966981;23;20106;-85
2022/08/23 14:02:12;;;;;;;9.77;3.20;;;31.20;79.80;;;;;;4908289;29;20378;-83
2022/08/23 14:04:39;;;;;;;9.23;3.75;;;31.50;80.70;;;;;;4927120;29;20082;-82